createdAt,value
2022-08-08T00:00:54.070Z,100574.08
2022-08-08T00:03:28.212Z,100570.84
2022-08-08T00:06:35.228Z,100566.00
2022-08-08T00:09:34.862Z,100577.47
2022-08-08T00:12:31.673Z,100575.06
2022-08-08T00:15:57.182Z,100567.17
2022-08-08T00:18:50.484Z,100575.66
2022-08-08T00:21:45.999Z,100580.58
2022-08-08T00:24:43.155Z,100581.69
2022-08-08T00:27:35.819Z,100577.62
2022-08-08T00:30:31.266Z,100571.97
2022-08-08T00:33:24.486Z,100572.56
2022-08-08T00:36:44.867Z,100573.15
2022-08-08T00:41:10.964Z,100577.25
2022-08-08T00:43:40.314Z,100577.84
2022-08-08T00:47:19.378Z,100573.50
2022-08-08T00:50:52.390Z,100571.33
2022-08-08T00:54:13.285Z,100577.36
2022-08-08T00:57:34.586Z,100571.12
2022-08-08T01:00:37.432Z,100574.95
2022-08-08T01:04:09.021Z,100580.66
2022-08-08T01:07:55.868Z,100582.08
2022-08-08T01:11:35.059Z,100586.17
2022-08-08T01:15:00.295Z,100588.68
2022-08-08T01:18:52.750Z,100582.42
2022-08-08T01:22:15.824Z,100586.55
2022-08-08T01:25:40.082Z,100587.13
2022-08-08T01:29:06.093Z,100583.06
2022-08-08T01:32:33.447Z,100586.09
2022-08-08T01:36:01.349Z,100574.17
2022-08-08T01:39:20.150Z,100576.66
2022-08-08T01:42:35.713Z,100578.33
2022-08-08T01:45:56.438Z,100580.01
2022-08-08T01:49:02.537Z,100587.64
2022-08-08T01:54:00.721Z,100583.09
2022-08-08T01:56:26.978Z,100591.00
2022-08-08T01:58:53.248Z,100590.48
2022-08-08T02:02:08.175Z,100593.25
2022-08-08T02:05:26.401Z,100597.38
2022-08-08T02:08:49.470Z,100596.84
2022-08-08T02:11:58.940Z,100605.58
2022-08-08T02:15:04.956Z,100606.16
2022-08-08T02:18:10.644Z,100605.08
2022-08-08T02:21:26.707Z,100602.63
2022-08-08T02:24:23.924Z,100608.64
2022-08-08T02:27:22.171Z,100609.21
2022-08-08T02:30:21.722Z,100612.50
2022-08-08T02:34:08.516Z,100618.81
2022-08-08T02:37:06.124Z,100622.09
2022-08-08T02:40:09.860Z,100620.74
2022-08-08T02:44:38.863Z,100621.84
2022-08-08T02:47:10.693Z,100626.75
2022-08-08T02:50:36.602Z,100625.95
2022-08-08T02:54:12.382Z,100628.14
2022-08-08T02:57:40.473Z,100635.77
2022-08-08T03:01:24.356Z,100627.36
2022-08-08T03:05:05.047Z,100632.56
2022-08-08T03:08:42.200Z,100624.16
2022-08-08T03:12:16.210Z,100632.08
2022-08-08T03:16:02.682Z,100631.55
2022-08-08T03:18:47.990Z,100635.09
2022-08-08T03:21:54.694Z,100641.39
2022-08-08T03:24:45.231Z,100643.58
2022-08-08T03:27:41.845Z,100644.14
2022-08-08T03:30:32.180Z,100639.54
2022-08-08T03:33:58.447Z,100646.06
2022-08-08T03:36:40.024Z,100649.91
2022-08-08T03:39:29.515Z,100657.81
2022-08-08T03:42:29.870Z,100658.34
2022-08-08T03:46:04.884Z,100657.27
2022-08-08T03:49:56.324Z,100660.28
2022-08-08T03:51:55.218Z,100655.41
2022-08-08T03:55:02.303Z,100659.22
2022-08-08T03:58:34.129Z,100663.82
2022-08-08T04:01:24.743Z,100666.00
2022-08-08T04:04:22.917Z,100670.66
2022-08-08T04:07:21.158Z,100659.83
2022-08-08T04:10:11.624Z,100665.52
2022-08-08T04:13:08.273Z,100669.61
2022-08-08T04:16:09.405Z,100673.41
2022-08-08T04:19:02.685Z,100668.55
2022-08-08T04:21:54.511Z,100674.77
2022-08-08T04:24:44.908Z,100678.56
2022-08-08T04:28:02.193Z,100677.77
2022-08-08T04:30:50.478Z,100685.08
2022-08-08T04:33:44.560Z,100685.61
2022-08-08T04:36:34.335Z,100690.78
2022-08-08T04:40:04.319Z,100692.94
2022-08-08T04:42:34.646Z,100691.55
2022-08-08T04:45:26.878Z,100685.57
2022-08-08T04:48:17.129Z,100677.70
2022-08-08T04:51:11.907Z,100680.39
2022-08-08T04:54:38.484Z,100693.11
2022-08-08T04:57:17.882Z,100691.20
2022-08-08T05:00:12.918Z,100692.27
2022-08-08T05:03:12.721Z,100700.91
2022-08-08T05:06:12.697Z,100698.73
2022-08-08T05:09:06.104Z,100698.70
2022-08-08T05:11:59.089Z,100706.55
2022-08-08T05:14:48.568Z,100707.61
2022-08-08T05:17:54.245Z,100708.67
2022-08-08T05:20:50.146Z,100708.08
2022-08-08T05:23:46.036Z,100709.13
2022-08-08T05:26:36.707Z,100722.38
2022-08-08T05:29:29.132Z,100711.78
2022-08-08T05:32:19.338Z,100719.06
2022-08-08T05:35:16.284Z,100716.61
2022-08-08T05:38:31.584Z,100722.80
2022-08-08T05:41:24.694Z,100727.09
2022-08-08T05:44:19.724Z,100734.67
2022-08-08T05:47:10.560Z,100736.25
2022-08-08T05:50:09.863Z,100731.30
2022-08-08T05:53:54.344Z,100742.37
2022-08-08T05:56:15.296Z,100742.55
2022-08-08T05:59:12.761Z,100749.00
2022-08-08T06:02:29.156Z,100747.27
2022-08-08T06:05:33.274Z,100745.85
2022-08-08T06:08:34.774Z,100745.44
2022-08-08T06:11:32.492Z,100759.79
2022-08-08T06:14:27.670Z,100757.22
2022-08-08T06:17:20.499Z,100752.77
2022-08-08T06:20:28.518Z,100766.55
2022-08-08T06:23:48.553Z,100769.73
2022-08-08T06:26:35.908Z,100764.16
2022-08-08T06:29:59.371Z,100775.71
2022-08-08T06:32:55.287Z,100770.67
2022-08-08T06:36:06.995Z,100774.88
2022-08-08T06:39:02.059Z,100778.63
2022-08-08T06:41:59.199Z,100781.59
2022-08-08T06:45:05.504Z,100783.21
2022-08-08T06:48:00.873Z,100779.37
2022-08-08T06:50:53.638Z,100777.97
2022-08-08T06:53:51.031Z,100779.23
2022-08-08T06:56:52.709Z,100790.05
2022-08-08T07:00:10.235Z,100773.63
2022-08-08T07:02:57.701Z,100772.75
2022-08-08T07:06:01.725Z,100769.94
2022-08-08T07:08:57.505Z,100765.72
2022-08-08T07:11:51.845Z,100764.78
2022-08-08T07:14:46.344Z,100761.05
2022-08-08T07:18:01.482Z,100765.22
2022-08-08T07:20:57.406Z,100757.36
2022-08-08T07:24:01.638Z,100770.81
2022-08-08T07:27:16.626Z,100766.59
2022-08-08T07:30:14.891Z,100768.93
2022-08-08T07:33:11.353Z,100775.30
2022-08-08T07:36:11.948Z,100771.07
2022-08-08T07:39:06.394Z,100777.22
2022-08-08T07:42:04.771Z,100768.31
2022-08-08T07:44:58.697Z,100772.27
2022-08-08T07:47:51.699Z,100770.44
2022-08-08T07:50:43.301Z,100765.87
2022-08-08T07:54:00.935Z,100773.38
2022-08-08T07:57:01.854Z,100768.80
2022-08-08T07:59:59.614Z,100763.39
2022-08-08T08:03:02.234Z,100764.59
2022-08-08T08:05:53.147Z,100759.50
2022-08-08T08:08:50.192Z,100758.44
2022-08-08T08:11:52.611Z,100768.34
2022-08-08T08:14:54.159Z,100769.00
2022-08-08T08:17:48.221Z,100766.66
2022-08-08T08:20:43.090Z,100769.47
2022-08-08T08:23:40.719Z,100764.53
2022-08-08T08:26:31.948Z,100778.14
2022-08-08T08:29:21.308Z,100768.53
2022-08-08T08:32:11.308Z,100765.52
2022-08-08T08:35:03.384Z,100763.66
2022-08-08T08:38:14.512Z,100768.55
2022-08-08T08:41:06.143Z,100768.11
2022-08-08T08:44:13.748Z,100768.30
2022-08-08T08:47:05.239Z,100764.31
2022-08-08T08:49:57.480Z,100767.71
2022-08-08T08:52:58.569Z,100761.75
2022-08-08T08:55:51.258Z,100765.62
2022-08-08T08:58:46.954Z,100761.13
2022-08-08T09:01:53.514Z,100757.72
2022-08-08T09:04:56.087Z,100757.06
2022-08-08T09:07:52.449Z,100760.41
2022-08-08T09:11:03.304Z,100742.94
2022-08-08T09:13:53.665Z,100749.23
2022-08-08T09:16:44.345Z,100748.86
2022-08-08T09:21:58.981Z,100735.90
2022-08-08T09:22:48.480Z,100740.48
2022-08-08T09:25:54.480Z,100725.88
2022-08-08T09:28:45.040Z,100720.14
2022-08-08T09:31:56.687Z,100721.34
2022-08-08T09:35:11.678Z,100723.80
2022-08-08T09:38:09.400Z,100719.33
2022-08-08T09:41:10.240Z,100714.34
2022-08-08T09:44:12.905Z,100714.38
2022-08-08T09:47:25.906Z,100706.30
2022-08-08T09:50:21.281Z,100711.63
2022-08-08T09:53:31.873Z,100701.41
2022-08-08T09:56:25.297Z,100700.63
2022-08-08T10:00:02.153Z,100696.50
2022-08-08T10:02:38.055Z,100690.86
2022-08-08T10:05:34.873Z,100684.79
2022-08-08T10:08:25.026Z,100680.44
2022-08-08T10:12:26.574Z,100680.42
2022-08-08T10:14:38.644Z,100673.36
2022-08-08T10:17:57.161Z,100669.42
2022-08-08T10:20:57.438Z,100669.52
2022-08-08T10:23:58.974Z,100668.75
2022-08-08T10:26:59.039Z,100650.54
2022-08-08T10:29:59.904Z,100651.31
2022-08-08T10:32:54.155Z,100650.08
2022-08-08T10:36:07.547Z,100645.89
2022-08-08T10:38:58.256Z,100638.68
2022-08-08T10:42:12.981Z,100637.25
2022-08-08T10:45:08.132Z,100631.46
2022-08-08T10:48:00.779Z,100631.62
2022-08-08T10:50:51.113Z,100632.79
2022-08-08T10:53:56.368Z,100614.00
2022-08-08T10:56:57.929Z,100620.95
2022-08-08T10:59:54.334Z,100614.42
2022-08-08T11:02:45.447Z,100618.22
2022-08-08T11:05:41.404Z,100609.72
2022-08-08T11:08:40.904Z,100605.94
2022-08-08T11:12:04.906Z,100616.88
2022-08-08T11:14:52.932Z,100605.91
2022-08-08T11:18:00.335Z,100602.48
2022-08-08T11:20:53.599Z,100597.09
2022-08-08T11:24:02.286Z,100601.84
2022-08-08T11:26:57.163Z,100600.30
2022-08-08T11:30:18.550Z,100596.36
2022-08-08T11:33:05.190Z,100594.12
2022-08-08T11:36:02.253Z,100583.19
2022-08-08T11:38:56.341Z,100587.98
2022-08-08T11:41:47.660Z,100584.14
2022-08-08T11:44:41.435Z,100583.10
2022-08-08T11:47:39.643Z,100581.62
2022-08-08T11:50:30.815Z,100581.75
2022-08-08T11:53:24.365Z,100583.48
2022-08-08T11:56:23.769Z,100589.56
2022-08-08T11:59:13.464Z,100574.87
2022-08-08T12:02:30.939Z,100573.27
2022-08-08T12:05:18.222Z,100568.91
2022-08-08T12:08:13.684Z,100566.64
2022-08-08T12:11:04.739Z,100565.94
2022-08-08T12:14:04.993Z,100570.09
2022-08-08T12:16:57.209Z,100569.82
2022-08-08T12:19:57.622Z,100570.67
2022-08-08T12:22:52.656Z,100574.68
2022-08-08T12:25:44.854Z,100574.14
2022-08-08T12:28:45.407Z,100569.78
2022-08-08T12:31:39.354Z,100571.06
2022-08-08T12:34:45.593Z,100573.13
2022-08-08T12:37:40.026Z,100566.52
2022-08-08T12:40:54.399Z,100567.02
2022-08-08T12:44:00.662Z,100576.17
2022-08-08T12:47:01.120Z,100565.94
2022-08-08T12:49:56.790Z,100565.25
2022-08-08T12:52:54.513Z,100563.75
2022-08-08T12:56:18.287Z,100563.39
2022-08-08T12:59:17.691Z,100552.37
2022-08-08T13:02:08.295Z,100551.56
2022-08-08T13:05:00.792Z,100544.81
2022-08-08T13:08:03.873Z,100545.12
2022-08-08T13:10:58.059Z,100536.06
2022-08-08T13:14:01.259Z,100545.24
2022-08-08T13:16:52.276Z,100543.16
2022-08-08T13:19:50.187Z,100544.76
2022-08-08T13:23:08.098Z,100533.68
2022-08-08T13:26:12.649Z,100538.89
2022-08-08T13:29:10.008Z,100531.42
2022-08-08T13:32:03.600Z,100533.02
2022-08-08T13:34:55.461Z,100537.02
2022-08-08T13:38:05.011Z,100538.64
2022-08-08T13:40:55.251Z,100534.70
2022-08-08T13:43:47.441Z,100530.81
2022-08-08T13:46:36.646Z,100524.87
2022-08-08T13:50:35.236Z,100528.83
2022-08-08T13:52:46.053Z,100514.55
2022-08-08T13:55:38.797Z,100514.55
2022-08-08T13:58:29.085Z,100524.09
2022-08-08T14:01:23.298Z,100514.13
2022-08-08T14:04:24.970Z,100512.52
2022-08-08T14:07:14.102Z,100512.94
2022-08-08T14:10:11.906Z,100517.66
2022-08-08T14:13:20.870Z,100509.98
2022-08-08T14:16:21.534Z,100505.14
2022-08-08T14:19:15.317Z,100505.50
2022-08-08T14:22:25.813Z,100501.56
2022-08-08T14:25:17.996Z,100493.25
2022-08-08T14:28:12.837Z,100492.47
2022-08-08T14:31:09.410Z,100492.89
2022-08-08T14:33:59.738Z,100492.41
2022-08-08T14:36:53.331Z,100486.81
2022-08-08T14:39:49.474Z,100487.17
2022-08-08T14:42:54.794Z,100478.02
2022-08-08T14:46:02.061Z,100482.81
2022-08-08T14:48:59.078Z,100483.56
2022-08-08T14:51:52.957Z,100481.45
2022-08-08T14:54:48.848Z,100485.72
2022-08-08T14:58:03.372Z,100484.83
2022-08-08T15:00:50.184Z,100478.45
2022-08-08T15:03:53.261Z,100484.67
2022-08-08T15:06:44.500Z,100486.16
2022-08-08T15:09:34.171Z,100483.22
2022-08-08T15:12:34.793Z,100481.94
2022-08-08T15:16:02.721Z,100475.13
2022-08-08T15:18:33.615Z,100477.70
2022-08-08T15:21:27.814Z,100484.67
2022-08-08T15:24:19.933Z,100479.78
2022-08-08T15:27:57.786Z,100475.38
2022-08-08T15:30:19.974Z,100471.75
2022-08-08T15:33:09.350Z,100472.41
2022-08-08T15:36:04.050Z,100477.81
2022-08-08T15:38:54.431Z,100479.28
2022-08-08T15:41:46.045Z,100489.04
2022-08-08T15:44:35.633Z,100486.95
2022-08-08T15:47:27.618Z,100488.77
2022-08-08T15:50:20.623Z,100487.81
2022-08-08T15:53:10.085Z,100483.75
2022-08-08T15:55:59.868Z,100485.99
2022-08-08T15:58:49.368Z,100485.50
2022-08-08T16:01:40.982Z,100479.40
2022-08-08T16:04:53.442Z,100488.26
2022-08-08T16:07:52.098Z,100486.83
2022-08-08T16:13:15.667Z,100477.23
2022-08-08T16:13:53.231Z,100484.48
2022-08-08T16:16:43.842Z,100498.39
2022-08-08T16:19:59.658Z,100496.02
2022-08-08T16:22:52.162Z,100501.87
2022-08-08T16:25:46.414Z,100495.55
2022-08-08T16:28:42.677Z,100507.76
2022-08-08T16:31:31.915Z,100517.95
2022-08-08T16:34:22.385Z,100518.02
2022-08-08T16:37:16.245Z,100522.28
2022-08-08T16:40:08.591Z,100520.81
2022-08-08T16:43:01.200Z,100528.25
2022-08-08T16:46:43.232Z,100523.11
2022-08-08T16:49:01.654Z,100527.86
2022-08-08T16:55:01.632Z,100529.19
2022-08-08T16:55:53.403Z,100525.80
2022-08-08T16:58:17.809Z,100543.35
2022-08-08T17:01:11.131Z,100537.66
2022-08-08T17:04:03.699Z,100542.50
2022-08-08T17:06:52.963Z,100544.20
2022-08-08T17:09:45.403Z,100541.84
2022-08-08T17:12:36.567Z,100539.34
2022-08-08T17:15:25.985Z,100545.55
2022-08-08T17:18:24.950Z,100552.55
2022-08-08T17:21:17.217Z,100557.89
2022-08-08T17:24:10.629Z,100560.52
2022-08-08T17:27:11.521Z,100560.87
2022-08-08T17:30:01.712Z,100564.92
2022-08-08T17:34:35.237Z,100573.34
2022-08-08T17:36:11.509Z,100583.48
2022-08-08T17:39:46.326Z,100578.18
2022-08-08T17:42:19.270Z,100576.41
2022-08-08T17:45:22.886Z,100583.47
2022-08-08T17:48:14.997Z,100584.58
2022-08-08T17:51:18.190Z,100589.05
2022-08-08T17:54:13.860Z,100600.59
2022-08-08T17:57:14.325Z,100601.71
2022-08-08T18:00:04.703Z,100603.75
2022-08-08T18:03:08.938Z,100609.50
2022-08-08T18:06:03.133Z,100617.33
2022-08-08T18:09:09.547Z,100618.22
2022-08-08T18:12:00.279Z,100621.72
2022-08-08T18:14:52.421Z,100627.31
2022-08-08T18:18:09.882Z,100624.84
2022-08-08T18:20:54.991Z,100636.69
2022-08-08T18:23:55.715Z,100632.30
2022-08-08T18:26:46.605Z,100636.87
2022-08-08T18:29:44.420Z,100634.88
2022-08-08T18:32:33.907Z,100640.45
2022-08-08T18:35:23.030Z,100636.34
2022-08-08T18:38:17.032Z,100641.42
2022-08-08T18:41:09.136Z,100650.63
2022-08-08T18:43:58.095Z,100645.72
2022-08-08T18:46:54.478Z,100651.36
2022-08-08T18:49:57.842Z,100653.70
2022-08-08T18:52:51.893Z,100653.30
2022-08-08T18:55:44.111Z,100658.36
2022-08-08T18:58:35.667Z,100654.30
2022-08-08T19:02:28.238Z,100666.32
2022-08-08T19:04:35.703Z,100660.45
2022-08-08T19:07:29.567Z,100657.23
2022-08-08T19:10:20.197Z,100658.94
2022-08-08T19:13:10.896Z,100664.71
2022-08-08T19:16:15.047Z,100666.71
2022-08-08T19:19:09.944Z,100674.80
2022-08-08T19:22:03.258Z,100665.60
2022-08-08T19:26:00.953Z,100669.44
2022-08-08T19:28:02.332Z,100664.84
2022-08-08T19:31:09.362Z,100662.71
2022-08-08T19:34:29.737Z,100662.02
2022-08-08T19:37:08.682Z,100661.78
2022-08-08T19:40:16.220Z,100662.79
2022-08-08T19:43:11.702Z,100654.70
2022-08-08T19:46:01.264Z,100653.08
2022-08-08T19:48:50.534Z,100649.30
2022-08-08T19:51:43.639Z,100655.35
2022-08-08T19:54:34.189Z,100655.35
2022-08-08T19:57:25.050Z,100653.45
2022-08-08T20:00:29.204Z,100652.94
2022-08-08T20:04:01.010Z,100653.30
2022-08-08T20:06:27.995Z,100644.50
2022-08-08T20:09:22.844Z,100653.63
2022-08-08T20:12:14.118Z,100651.78
2022-08-08T20:15:10.370Z,100645.08
2022-08-08T20:18:15.581Z,100652.52
2022-08-08T20:21:05.599Z,100651.70
2022-08-08T20:23:58.001Z,100646.05
2022-08-08T20:26:49.381Z,100643.61
2022-08-08T20:29:56.028Z,100640.09
2022-08-08T20:32:48.354Z,100640.68
2022-08-08T20:35:57.897Z,100644.27
2022-08-08T20:38:46.351Z,100650.61
2022-08-08T20:41:39.403Z,100664.50
2022-08-08T20:44:30.703Z,100653.92
2022-08-08T20:47:23.234Z,100663.98
2022-08-08T20:50:14.117Z,100657.23
2022-08-08T20:53:03.026Z,100657.50
2022-08-08T20:55:56.905Z,100659.78
2022-08-08T20:58:47.559Z,100658.74
2022-08-08T21:01:44.370Z,100659.63
2022-08-08T21:04:50.148Z,100664.83
2022-08-08T21:08:07.734Z,100670.86
2022-08-08T21:10:49.832Z,100669.23
2022-08-08T21:13:40.692Z,100668.99
2022-08-08T21:16:31.908Z,100669.81
2022-08-08T21:19:21.012Z,100663.55
2022-08-08T21:22:12.708Z,100668.99
2022-08-08T21:25:02.414Z,100667.92
2022-08-08T21:28:09.272Z,100676.60
2022-08-08T21:31:05.834Z,100666.23
2022-08-08T21:34:10.669Z,100666.45
2022-08-08T21:37:11.376Z,100658.80
2022-08-08T21:40:10.047Z,100659.84
2022-08-08T21:43:00.687Z,100660.87
2022-08-08T21:48:06.689Z,100657.57
2022-08-08T21:48:58.338Z,100664.88
2022-08-08T21:54:33.263Z,100663.47
2022-08-08T21:55:01.847Z,100660.98
2022-08-08T21:58:05.554Z,100656.05
2022-08-08T22:00:57.115Z,100650.89
2022-08-08T22:03:50.128Z,100656.64
2022-08-08T22:06:41.590Z,100657.23
2022-08-08T22:09:40.761Z,100655.30
2022-08-08T22:12:30.782Z,100648.47
2022-08-08T22:15:19.326Z,100650.09
2022-08-08T22:18:12.462Z,100668.05
2022-08-08T22:21:13.727Z,100659.05
2022-08-08T22:24:07.302Z,100660.53
2022-08-08T22:27:01.561Z,100655.67
2022-08-08T22:29:59.192Z,100647.52
2022-08-08T22:32:51.590Z,100652.95
2022-08-08T22:36:04.719Z,100658.40
2022-08-08T22:38:51.428Z,100651.09
2022-08-08T22:41:39.974Z,100659.05
2022-08-08T22:44:28.936Z,100655.50
2022-08-08T22:47:21.991Z,100659.33
2022-08-08T22:50:26.035Z,100666.17
2022-08-08T22:54:29.194Z,100664.83
2022-08-08T22:56:28.280Z,100664.62
2022-08-08T22:59:19.113Z,100659.77
2022-08-08T23:02:12.735Z,100664.92
2022-08-08T23:05:07.562Z,100665.51
2022-08-08T23:08:02.954Z,100665.30
2022-08-08T23:10:52.980Z,100667.77
2022-08-08T23:13:53.894Z,100657.77
2022-08-08T23:16:59.126Z,100663.27
2022-08-08T23:19:49.026Z,100660.88
2022-08-08T23:22:43.235Z,100655.50
2022-08-08T23:25:45.152Z,100650.12
2022-08-08T23:28:38.564Z,100646.66
2022-08-08T23:31:29.453Z,100645.89
2022-08-08T23:34:29.262Z,100650.85
2022-08-08T23:37:24.653Z,100647.39
2022-08-08T23:40:14.303Z,100649.33
2022-08-08T23:43:04.561Z,100651.54
2022-08-08T23:49:05.465Z,100650.27
2022-08-08T23:49:14.867Z,100651.41
2022-08-08T23:52:08.698Z,100654.16
2022-08-08T23:55:07.137Z,100657.19
2022-08-08T23:58:03.613Z,100653.98
